Time,TemperatureF,DewpointF,PressureIn,WindDirection,WindDirectionDegrees,WindSpeedMPH,WindSpeedGustMPH,Humidity,HourlyPrecipIn,Conditions,Clouds,dailyrainin,SoftwareType,DateUTC
2013-07-08 00:08:00,79.8,76.0,29.94,ESE,103,4.0,11.0,87,0.00,,,0.00,weatherlink.com 1.10,2013-07-08 05:08:00,
2013-07-08 00:24:00,79.9,76.0,29.94,ESE,117,4.0,11.0,87,0.00,,,0.00,weatherlink.com 1.10,2013-07-08 05:24:00,
2013-07-08 00:39:00,79.7,76.0,29.94,SW,219,7.0,8.0,87,0.00,,,0.00,weatherlink.com 1.10,2013-07-08 05:39:00,
2013-07-08 00:54:00,79.6,76.0,29.94,SE,142,5.0,9.0,87,0.00,,,0.00,weatherlink.com 1.10,2013-07-08 05:54:00,
2013-07-08 01:09:00,79.6,76.0,29.93,ESE,110,6.0,9.0,88,0.00,,,0.00,weatherlink.com 1.10,2013-07-08 06:09:00,
2013-07-08 01:24:00,79.5,76.0,29.93,ESE,121,2.0,8.0,88,0.00,,,0.00,weatherlink.com 1.10,2013-07-08 06:24:00,
2013-07-08 01:39:00,79.4,76.0,29.93,SE,129,2.0,6.0,88,0.00,,,0.00,weatherlink.com 1.10,2013-07-08 06:39:00,
2013-07-08 01:54:00,79.3,76.0,29.93,East,101,2.0,6.0,89,0.00,,,0.00,weatherlink.com 1.10,2013-07-08 06:54:00,
2013-07-08 02:09:00,79.4,76.0,29.93,East,91,2.0,7.0,89,0.00,,,0.00,weatherlink.com 1.10,2013-07-08 07:09:00,
2013-07-08 02:24:00,79.6,76.0,29.93,SE,133,2.0,6.0,89,0.00,,,0.00,weatherlink.com 1.10,2013-07-08 07:24:00,
2013-07-08 02:39:00,79.8,76.0,29.93,ESE,103,2.0,6.0,89,0.00,,,0.00,weatherlink.com 1.10,2013-07-08 07:39:00,
2013-07-08 02:54:00,80.0,76.0,29.93,SE,135,3.0,8.0,88,0.00,,,0.00,weatherlink.com 1.10,2013-07-08 07:54:00,
2013-07-08 03:09:00,80.2,76.0,29.93,SSE,156,3.0,9.0,88,0.00,,,0.00,weatherlink.com 1.10,2013-07-08 08:09:00,
2013-07-08 03:24:00,80.3,77.0,29.93,SE,129,4.0,9.0,88,0.00,,,0.00,weatherlink.com 1.10,2013-07-08 08:24:00,
2013-07-08 03:39:00,80.5,76.0,29.94,East,94,3.0,9.0,87,0.00,,,0.00,weatherlink.com 1.10,2013-07-08 08:39:00,
2013-07-08 03:54:00,80.6,77.0,29.94,East,91,5.0,9.0,87,0.00,,,0.00,weatherlink.com 1.10,2013-07-08 08:54:00,
2013-07-08 04:09:00,80.6,77.0,29.94,ESE,106,1.0,8.0,87,0.00,,,0.00,weatherlink.com 1.10,2013-07-08 09:09:00,
2013-07-08 04:24:00,80.6,77.0,29.95,SE,135,3.0,6.0,87,0.00,,,0.00,weatherlink.com 1.10,2013-07-08 09:24:00,
2013-07-08 04:39:00,80.6,77.0,29.95,East,93,2.0,7.0,87,0.00,,,0.00,weatherlink.com 1.10,2013-07-08 09:39:00,
2013-07-08 04:54:00,80.1,75.0,29.96,SE,142,4.0,11.0,84,0.00,,,0.00,weatherlink.com 1.10,2013-07-08 09:54:00,
2013-07-08 05:09:00,76.1,73.0,29.96,ESE,123,2.0,10.0,89,0.11,,,0.11,weatherlink.com 1.10,2013-07-08 10:09:00,
2013-07-08 05:24:00,75.0,72.0,29.96,SE,131,0.0,2.0,91,0.11,,,0.11,weatherlink.com 1.10,2013-07-08 10:24:00,
2013-07-08 05:39:00,74.7,73.0,29.96,SE,131,0.0,0.0,93,0.11,,,0.11,weatherlink.com 1.10,2013-07-08 10:39:00,
2013-07-08 05:54:00,74.7,73.0,29.96,SE,131,0.0,0.0,94,0.11,,,0.11,weatherlink.com 1.10,2013-07-08 10:54:00,
2013-07-08 06:09:00,74.8,73.0,29.96,SE,131,0.0,0.0,94,0.00,,,0.11,weatherlink.com 1.10,2013-07-08 11:09:00,
2013-07-08 06:24:00,74.7,73.0,29.96,SE,131,0.0,0.0,94,0.00,,,0.11,weatherlink.com 1.10,2013-07-08 11:24:00,
2013-07-08 06:39:00,74.6,73.0,29.96,SE,131,0.0,0.0,94,0.00,,,0.11,weatherlink.com 1.10,2013-07-08 11:39:00,
2013-07-08 06:54:00,74.6,73.0,29.97,SE,131,0.0,0.0,94,0.00,,,0.11,weatherlink.com 1.10,2013-07-08 11:54:00,
2013-07-08 07:09:00,74.6,73.0,29.97,SE,129,0.0,0.0,95,0.00,,,0.11,weatherlink.com 1.10,2013-07-08 12:09:00,
2013-07-08 07:24:00,74.7,73.0,29.97,SE,129,0.0,1.0,94,0.00,,,0.11,weatherlink.com 1.10,2013-07-08 12:24:00,
2013-07-08 07:39:00,75.3,74.0,29.98,SE,131,0.0,0.0,95,0.00,,,0.11,weatherlink.com 1.10,2013-07-08 12:39:00,
2013-07-08 07:54:00,76.0,74.0,29.98,SE,129,0.0,0.0,94,0.00,,,0.11,weatherlink.com 1.10,2013-07-08 12:54:00,
2013-07-08 08:09:00,76.9,75.0,29.99,SE,131,0.0,0.0,93,0.00,,,0.11,weatherlink.com 1.10,2013-07-08 13:09:00,
2013-07-08 08:24:00,78.2,75.0,29.99,SE,131,0.0,0.0,90,0.00,,,0.11,weatherlink.com 1.10,2013-07-08 13:24:00,
2013-07-08 08:39:00,79.2,76.0,30.00,SE,129,1.0,1.0,89,0.00,,,0.11,weatherlink.com 1.10,2013-07-08 13:39:00,
2013-07-08 08:54:00,79.8,76.0,30.01,SE,129,0.0,2.0,88,0.00,,,0.11,weatherlink.com 1.10,2013-07-08 13:54:00,
2013-07-08 09:09:00,80.5,77.0,30.01,ESE,105,1.0,4.0,88,0.00,,,0.11,weatherlink.com 1.10,2013-07-08 14:09:00,
2013-07-08 09:24:00,81.1,77.0,30.02,ENE,63,2.0,3.0,88,0.00,,,0.11,weatherlink.com 1.10,2013-07-08 14:24:00,
2013-07-08 09:39:00,81.6,78.0,30.02,NE,46,3.0,4.0,88,0.00,,,0.11,weatherlink.com 1.10,2013-07-08 14:39:00,
2013-07-08 09:55:00,82.3,78.0,30.02,ESE,114,3.0,7.0,86,0.00,,,0.11,weatherlink.com 1.10,2013-07-08 14:55:00,
2013-07-08 10:10:00,83.2,78.0,30.03,SE,125,4.0,9.0,84,0.00,,,0.11,weatherlink.com 1.10,2013-07-08 15:10:00,
2013-07-08 10:25:00,83.8,77.0,30.02,East,98,6.0,12.0,81,0.00,,,0.11,weatherlink.com 1.10,2013-07-08 15:25:00,
2013-07-08 10:40:00,84.7,76.0,30.03,SE,125,5.0,10.0,76,0.00,,,0.11,weatherlink.com 1.10,2013-07-08 15:40:00,
2013-07-08 10:55:00,85.5,76.0,30.03,SE,141,4.0,11.0,73,0.00,,,0.11,weatherlink.com 1.10,2013-07-08 15:55:00,
2013-07-08 11:10:00,86.3,75.0,30.03,ESE,110,9.0,11.0,69,0.00,,,0.11,weatherlink.com 1.10,2013-07-08 16:10:00,
2013-07-08 11:25:00,87.3,76.0,30.04,East,100,5.0,12.0,68,0.00,,,0.11,weatherlink.com 1.10,2013-07-08 16:25:00,
2013-07-08 11:40:00,88.0,74.0,30.04,ESE,104,3.0,12.0,64,0.00,,,0.11,weatherlink.com 1.10,2013-07-08 16:40:00,
2013-07-08 12:10:00,88.1,75.0,30.03,SE,144,4.0,11.0,66,0.00,,,0.11,weatherlink.com 1.10,2013-07-08 17:10:00,
2013-07-08 12:25:00,89.9,76.0,30.02,ESE,121,10.0,13.0,63,0.00,,,0.11,weatherlink.com 1.10,2013-07-08 17:25:00,
2013-07-08 12:40:00,90.5,76.0,30.02,SSE,157,2.0,12.0,62,0.00,,,0.11,weatherlink.com 1.10,2013-07-08 17:40:00,
2013-07-08 13:10:00,90.0,75.0,30.02,East,96,5.0,13.0,61,0.00,,,0.11,weatherlink.com 1.10,2013-07-08 18:10:00,
2013-07-08 13:40:00,90.5,74.0,30.00,ESE,114,4.0,15.0,59,0.00,,,0.11,weatherlink.com 1.10,2013-07-08 18:40:00,
2013-07-08 13:55:00,86.8,76.0,30.00,ESE,113,6.0,19.0,71,0.00,,,0.11,weatherlink.com 1.10,2013-07-08 18:55:00,
2013-07-08 14:25:00,89.6,78.0,29.99,SE,146,4.0,12.0,68,0.00,,,0.11,weatherlink.com 1.10,2013-07-08 19:25:00,
2013-07-08 14:40:00,90.7,77.0,29.99,SE,125,5.0,13.0,64,0.00,,,0.11,weatherlink.com 1.10,2013-07-08 19:40:00,
2013-07-08 15:10:00,91.7,76.0,29.98,East,82,3.0,14.0,60,0.00,,,0.11,weatherlink.com 1.10,2013-07-08 20:10:00,
2013-07-08 15:40:00,91.9,76.0,29.97,ESE,113,6.0,16.0,59,0.00,,,0.11,weatherlink.com 1.10,2013-07-08 20:40:00,
2013-07-08 15:55:00,91.5,75.0,29.97,ESE,105,6.0,16.0,59,0.00,,,0.11,weatherlink.com 1.10,2013-07-08 20:55:00,
2013-07-08 16:25:00,91.7,76.0,29.97,SE,136,8.0,12.0,61,0.00,,,0.11,weatherlink.com 1.10,2013-07-08 21:25:00,
2013-07-08 16:40:00,91.4,76.0,29.97,East,93,7.0,12.0,60,0.00,,,0.11,weatherlink.com 1.10,2013-07-08 21:40:00,
2013-07-08 17:11:00,90.6,75.0,29.96,East,100,4.0,17.0,60,0.00,,,0.11,weatherlink.com 1.10,2013-07-08 22:11:00,
2013-07-08 17:40:00,89.6,74.0,29.96,East,91,3.0,14.0,61,0.00,,,0.11,weatherlink.com 1.10,2013-07-08 22:40:00,
2013-07-08 17:55:00,89.1,75.0,29.96,SE,124,7.0,14.0,63,0.00,,,0.11,weatherlink.com 1.10,2013-07-08 22:55:00,
2013-07-08 18:10:00,88.5,74.0,29.96,SE,129,3.0,12.0,63,0.00,,,0.11,weatherlink.com 1.10,2013-07-08 23:10:00,
2013-07-08 18:27:00,88.1,75.0,29.96,East,90,6.0,13.0,66,0.00,,,0.11,weatherlink.com 1.10,2013-07-08 23:27:00,
2013-07-08 18:41:00,87.3,75.0,29.97,East,90,5.0,11.0,67,0.00,,,0.11,weatherlink.com 1.10,2013-07-08 23:41:00,
2013-07-08 19:26:00,85.7,75.0,29.98,SE,127,3.0,13.0,70,0.00,,,0.11,weatherlink.com 1.10,2013-07-09 00:26:00,
2013-07-08 19:56:00,84.5,75.0,29.99,East,101,6.0,11.0,73,0.00,,,0.11,weatherlink.com 1.10,2013-07-09 00:56:00,
2013-07-08 20:26:00,83.3,76.0,30.00,ESE,122,4.0,10.0,79,0.00,,,0.11,weatherlink.com 1.10,2013-07-09 01:26:00,
2013-07-08 20:41:00,82.8,76.0,30.00,ESE,118,9.0,9.0,81,0.00,,,0.11,weatherlink.com 1.10,2013-07-09 01:41:00,
2013-07-08 21:11:00,82.3,77.0,30.01,ESE,121,7.0,10.0,84,0.00,,,0.11,weatherlink.com 1.10,2013-07-09 02:11:00,
2013-07-08 21:26:00,82.0,78.0,30.02,ESE,107,2.0,10.0,86,0.00,,,0.11,weatherlink.com 1.10,2013-07-09 02:26:00,
2013-07-08 21:41:00,81.8,77.0,30.02,East,94,4.0,10.0,86,0.00,,,0.11,weatherlink.com 1.10,2013-07-09 02:41:00,
2013-07-08 21:56:00,81.6,77.0,30.02,East,98,3.0,9.0,86,0.00,,,0.11,weatherlink.com 1.10,2013-07-09 02:56:00,
2013-07-08 22:41:00,81.2,77.0,30.04,East,100,3.0,9.0,88,0.00,,,0.11,weatherlink.com 1.10,2013-07-09 03:41:00,
2013-07-08 22:56:00,81.1,77.0,30.05,ESE,108,3.0,7.0,88,0.00,,,0.11,weatherlink.com 1.10,2013-07-09 03:56:00,
2013-07-08 23:11:00,80.8,77.0,30.05,ESE,115,4.0,8.0,89,0.00,,,0.11,weatherlink.com 1.10,2013-07-09 04:11:00,
2013-07-08 23:40:00,80.4,77.0,30.05,ESE,123,0.0,5.0,89,0.00,,,0.11,weatherlink.com 1.10,2013-07-09 04:40:00,
2013-07-08 23:55:00,80.2,77.0,30.05,ESE,120,0.0,4.0,90,0.00,,,0.11,weatherlink.com 1.10,2013-07-09 04:55:00,